createdAt,value
2023-03-29T00:02:04.903Z,4.70
2023-03-29T00:04:14.101Z,4.45
2023-03-29T00:06:22.353Z,4.10
2023-03-29T00:08:31.602Z,4.53
2023-03-29T00:10:39.931Z,4.10
2023-03-29T00:12:47.881Z,5.00
2023-03-29T00:14:58.456Z,4.35
2023-03-29T00:17:06.728Z,6.60
2023-03-29T00:19:15.284Z,3.72
2023-03-29T00:21:23.152Z,4.80
2023-03-29T00:23:31.400Z,4.78
2023-03-29T00:25:39.326Z,3.80
2023-03-29T00:27:47.517Z,4.30
2023-03-29T00:29:55.359Z,4.75
2023-03-29T00:32:05.861Z,4.30
2023-03-29T00:34:14.017Z,3.80
2023-03-29T00:36:22.392Z,5.05
2023-03-29T00:38:30.435Z,3.90
2023-03-29T00:40:44.946Z,4.10
2023-03-29T00:42:53.198Z,4.35
2023-03-29T00:45:05.501Z,4.47
2023-03-29T00:47:16.732Z,4.65
2023-03-29T00:49:25.079Z,3.63
2023-03-29T00:51:39.062Z,4.57
2023-03-29T00:53:53.789Z,4.50
2023-03-29T00:56:06.821Z,5.18
2023-03-29T00:58:19.690Z,4.20
2023-03-29T01:00:33.976Z,4.50
2023-03-29T01:02:46.557Z,4.10
2023-03-29T01:04:59.405Z,5.22
2023-03-29T01:07:18.154Z,4.40
2023-03-29T01:09:30.586Z,5.50
2023-03-29T01:11:43.074Z,5.10
2023-03-29T01:14:00.216Z,3.38
2023-03-29T01:16:12.117Z,4.65
2023-03-29T01:18:23.382Z,4.20
2023-03-29T01:20:45.146Z,3.90
2023-03-29T01:23:17.189Z,4.70
2023-03-29T01:25:35.988Z,4.30
2023-03-29T01:27:54.233Z,3.80
2023-03-29T01:30:09.113Z,3.67
2023-03-29T01:32:22.445Z,5.03
2023-03-29T01:34:36.138Z,5.30
2023-03-29T01:36:51.266Z,5.03
2023-03-29T01:39:05.185Z,4.53
2023-03-29T01:41:13.431Z,4.95
2023-03-29T01:43:29.706Z,4.20
2023-03-29T01:45:44.698Z,4.15
2023-03-29T01:48:01.236Z,5.43
2023-03-29T01:50:17.039Z,4.15
2023-03-29T01:52:28.914Z,4.70
2023-03-29T01:54:40.143Z,4.30
2023-03-29T01:56:51.361Z,4.25
2023-03-29T01:59:07.837Z,5.18
2023-03-29T02:01:21.998Z,4.53
2023-03-29T02:03:34.087Z,4.20
2023-03-29T02:05:43.073Z,4.25
2023-03-29T02:07:53.169Z,4.20
2023-03-29T02:10:02.366Z,4.32
2023-03-29T02:12:12.541Z,4.20
2023-03-29T02:14:24.408Z,4.03
2023-03-29T02:16:32.337Z,5.20
2023-03-29T02:18:40.715Z,4.07
2023-03-29T02:20:51.924Z,4.97
2023-03-29T02:23:06.400Z,4.82
2023-03-29T02:25:15.697Z,5.03
2023-03-29T02:27:23.840Z,4.05
2023-03-29T02:29:34.349Z,3.90
2023-03-29T02:31:46.062Z,5.75
2023-03-29T02:34:00.582Z,4.18
2023-03-29T02:36:13.996Z,4.40
2023-03-29T02:38:25.715Z,4.10
2023-03-29T02:40:36.139Z,4.25
2023-03-29T02:42:48.145Z,4.20
2023-03-29T02:45:01.781Z,4.22
2023-03-29T02:47:21.414Z,4.97
2023-03-29T02:49:30.534Z,6.55
2023-03-29T02:51:41.042Z,4.90
2023-03-29T02:53:53.964Z,5.43
2023-03-29T02:56:02.476Z,4.82
2023-03-29T02:58:11.062Z,4.82
2023-03-29T03:00:23.548Z,4.78
2023-03-29T03:02:33.816Z,4.78
2023-03-29T03:04:42.127Z,4.97
2023-03-29T03:06:50.802Z,4.40
2023-03-29T03:08:58.731Z,4.13
2023-03-29T03:11:07.226Z,5.50
2023-03-29T03:13:15.463Z,3.75
2023-03-29T03:15:26.668Z,4.90
2023-03-29T03:17:40.094Z,3.85
2023-03-29T03:19:48.157Z,4.30
2023-03-29T03:21:56.330Z,3.95
2023-03-29T03:24:04.189Z,4.07
2023-03-29T03:26:12.334Z,4.30
2023-03-29T03:28:22.261Z,4.07
2023-03-29T03:30:34.094Z,4.78
2023-03-29T03:33:11.805Z,4.55
2023-03-29T03:35:38.853Z,4.50
2023-03-29T03:37:48.533Z,4.35
2023-03-29T03:39:58.557Z,3.67
2023-03-29T03:42:08.799Z,4.82
2023-03-29T03:44:22.244Z,4.82
2023-03-29T03:46:51.682Z,4.70
2023-03-29T03:48:59.652Z,4.88
2023-03-29T03:51:11.625Z,4.93
2023-03-29T03:53:19.590Z,5.70
2023-03-29T03:55:50.847Z,4.88
2023-03-29T03:58:05.608Z,4.43
2023-03-29T04:00:21.473Z,4.78
2023-03-29T04:02:56.666Z,3.63
2023-03-29T04:05:05.561Z,4.40
2023-03-29T04:07:18.138Z,4.60
2023-03-29T04:09:45.343Z,5.10
2023-03-29T04:12:13.926Z,3.80
2023-03-29T04:14:23.494Z,3.13
2023-03-29T04:16:54.716Z,3.55
2023-03-29T04:19:26.093Z,3.58
2023-03-29T04:21:35.095Z,4.45
2023-03-29T04:23:43.202Z,3.35
2023-03-29T04:25:51.849Z,6.95
2023-03-29T04:28:28.690Z,3.53
2023-03-29T04:30:49.304Z,3.35
2023-03-29T04:33:24.559Z,3.78
2023-03-29T04:35:42.829Z,5.32
2023-03-29T04:37:54.926Z,4.70
2023-03-29T04:40:05.126Z,3.97
2023-03-29T04:42:29.614Z,3.38
2023-03-29T04:44:41.744Z,3.85
2023-03-29T04:46:50.615Z,3.70
2023-03-29T04:49:03.060Z,3.30
2023-03-29T04:51:20.343Z,3.72
2023-03-29T04:53:32.608Z,3.33
2023-03-29T04:55:42.645Z,3.00
2023-03-29T04:57:55.824Z,3.67
2023-03-29T05:00:34.160Z,3.67
2023-03-29T05:02:54.066Z,2.90
2023-03-29T05:05:03.069Z,2.60
2023-03-29T05:07:15.578Z,3.20
2023-03-29T05:09:23.919Z,2.80
2023-03-29T05:11:33.025Z,2.60
2023-03-29T05:13:45.447Z,3.38
2023-03-29T05:15:53.440Z,3.10
2023-03-29T05:18:01.488Z,2.70
2023-03-29T05:20:13.405Z,2.70
2023-03-29T05:22:27.137Z,2.95
2023-03-29T05:24:35.483Z,2.95
2023-03-29T05:26:52.145Z,2.75
2023-03-29T05:29:03.015Z,4.60
2023-03-29T05:31:11.721Z,2.65
2023-03-29T05:33:22.806Z,3.45
2023-03-29T05:35:30.749Z,3.63
2023-03-29T05:37:43.094Z,2.20
2023-03-29T05:39:51.970Z,3.00
2023-03-29T05:42:04.680Z,4.38
2023-03-29T05:44:17.237Z,2.38
2023-03-29T05:46:28.488Z,3.78
2023-03-29T05:48:39.094Z,3.50
2023-03-29T05:50:50.927Z,3.95
2023-03-29T05:53:02.569Z,3.28
2023-03-29T05:55:11.699Z,4.82
2023-03-29T05:57:21.223Z,4.07
2023-03-29T05:59:29.949Z,3.50
2023-03-29T06:01:40.663Z,5.10
2023-03-29T06:03:51.728Z,3.17
2023-03-29T06:06:04.184Z,3.33
2023-03-29T06:08:16.475Z,5.25
2023-03-29T06:10:45.842Z,3.55
2023-03-29T06:13:13.019Z,2.80
2023-03-29T06:15:24.532Z,3.38
2023-03-29T06:17:39.733Z,3.33
2023-03-29T06:19:49.232Z,4.40
2023-03-29T06:21:58.942Z,3.83
2023-03-29T06:24:12.541Z,4.35
2023-03-29T06:26:27.980Z,3.75
2023-03-29T06:28:38.489Z,3.70
2023-03-29T06:30:48.609Z,3.95
2023-03-29T06:32:59.285Z,3.92
2023-03-29T06:35:24.894Z,4.68
2023-03-29T06:37:49.709Z,3.25
2023-03-29T06:40:17.229Z,3.00
2023-03-29T06:42:28.730Z,5.10
2023-03-29T06:44:53.728Z,2.63
2023-03-29T06:47:02.851Z,2.15
2023-03-29T06:49:12.229Z,6.95
2023-03-29T06:51:29.844Z,4.75
2023-03-29T06:53:38.265Z,4.13
2023-03-29T06:55:49.551Z,3.80
2023-03-29T06:58:16.842Z,5.07
2023-03-29T07:00:31.001Z,6.40
2023-03-29T07:02:47.925Z,6.57
2023-03-29T07:04:57.001Z,4.75
2023-03-29T07:07:20.540Z,6.00
2023-03-29T07:09:36.233Z,3.42
2023-03-29T07:12:05.677Z,3.63
2023-03-29T07:14:14.804Z,2.30
2023-03-29T07:16:25.512Z,6.20
2023-03-29T07:18:40.014Z,2.97
2023-03-29T07:20:48.952Z,2.72
2023-03-29T07:22:57.618Z,2.40
2023-03-29T07:25:06.037Z,2.50
2023-03-29T07:27:18.748Z,2.80
2023-03-29T07:29:29.989Z,5.53
2023-03-29T07:31:41.959Z,2.00
2023-03-29T07:34:25.787Z,2.30
2023-03-29T07:36:35.216Z,1.88
2023-03-29T07:38:43.210Z,2.58
2023-03-29T07:40:56.720Z,2.60
2023-03-29T07:43:30.516Z,2.95
2023-03-29T07:45:40.799Z,2.53
2023-03-29T07:47:57.396Z,5.53
2023-03-29T07:50:08.045Z,2.53
2023-03-29T07:52:17.157Z,2.72
2023-03-29T07:54:26.009Z,1.63
2023-03-29T07:56:41.800Z,2.17
2023-03-29T07:59:00.818Z,2.80
2023-03-29T08:01:11.036Z,2.97
2023-03-29T08:03:41.689Z,5.22
2023-03-29T08:05:53.952Z,2.97
2023-03-29T08:08:02.533Z,2.40
2023-03-29T08:10:17.748Z,3.47
2023-03-29T08:12:53.551Z,2.40
2023-03-29T08:15:13.522Z,3.67
2023-03-29T08:17:24.167Z,2.20
2023-03-29T08:19:33.287Z,4.97
2023-03-29T08:21:47.050Z,2.92
2023-03-29T08:23:56.322Z,3.30
2023-03-29T08:26:16.358Z,2.30
2023-03-29T08:28:25.122Z,2.15
2023-03-29T08:30:35.787Z,2.70
2023-03-29T08:32:49.965Z,3.65
2023-03-29T08:35:01.613Z,1.85
2023-03-29T08:37:17.144Z,2.58
2023-03-29T08:39:28.555Z,2.45
2023-03-29T08:42:18.997Z,2.97
2023-03-29T08:44:46.183Z,2.92
2023-03-29T08:47:07.374Z,2.30
2023-03-29T08:49:24.786Z,2.50
2023-03-29T08:51:36.960Z,2.08
2023-03-29T08:53:48.968Z,2.90
2023-03-29T08:56:15.733Z,2.75
2023-03-29T08:58:54.811Z,3.10
2023-03-29T09:01:08.791Z,3.58
2023-03-29T09:03:35.116Z,2.97
2023-03-29T09:05:56.630Z,4.45
2023-03-29T09:08:07.645Z,2.72
2023-03-29T09:10:19.183Z,2.40
2023-03-29T09:12:39.074Z,2.50
2023-03-29T09:14:55.491Z,2.38
2023-03-29T09:17:13.666Z,2.70
2023-03-29T09:19:33.221Z,2.20
2023-03-29T09:21:49.849Z,3.38
2023-03-29T09:24:40.140Z,2.97
2023-03-29T09:27:06.811Z,2.40
2023-03-29T09:29:40.239Z,4.65
2023-03-29T09:31:49.170Z,2.88
2023-03-29T09:34:02.223Z,2.83
2023-03-29T09:36:28.646Z,2.60
2023-03-29T09:38:40.459Z,3.80
2023-03-29T09:40:52.919Z,2.40
2023-03-29T09:43:04.991Z,2.50
2023-03-29T09:45:14.353Z,2.80
2023-03-29T09:47:32.587Z,2.50
2023-03-29T09:49:49.196Z,2.60
2023-03-29T09:52:04.614Z,2.47
2023-03-29T09:54:15.085Z,3.78
2023-03-29T09:56:46.388Z,2.55
2023-03-29T09:58:57.283Z,2.30
2023-03-29T10:01:10.624Z,3.25
2023-03-29T10:03:24.102Z,2.97
2023-03-29T10:05:41.597Z,4.82
2023-03-29T10:08:02.543Z,2.85
2023-03-29T10:10:12.505Z,2.60
2023-03-29T10:12:30.961Z,2.30
2023-03-29T10:14:42.615Z,2.80
2023-03-29T10:16:57.740Z,4.10
2023-03-29T10:19:19.411Z,3.72
2023-03-29T10:21:27.372Z,2.83
2023-03-29T10:23:40.516Z,3.10
2023-03-29T10:25:48.724Z,2.15
2023-03-29T10:28:01.587Z,2.50
2023-03-29T10:30:15.002Z,2.50
2023-03-29T10:32:38.167Z,2.33
2023-03-29T10:34:48.625Z,2.75
2023-03-29T10:37:01.421Z,2.28
2023-03-29T10:39:16.536Z,2.47
2023-03-29T10:41:27.264Z,2.63
2023-03-29T10:43:40.351Z,3.25
2023-03-29T10:45:51.628Z,2.58
2023-03-29T10:48:01.552Z,3.45
2023-03-29T10:50:12.196Z,2.63
2023-03-29T10:52:20.205Z,2.85
2023-03-29T10:54:31.196Z,3.03
2023-03-29T10:56:43.584Z,2.80
2023-03-29T10:59:11.078Z,2.83
2023-03-29T11:01:26.528Z,4.03
2023-03-29T11:03:59.117Z,2.60
2023-03-29T11:06:16.870Z,2.90
2023-03-29T11:08:33.497Z,2.58
2023-03-29T11:10:58.543Z,3.25
2023-03-29T11:13:13.502Z,3.30
2023-03-29T11:15:44.142Z,3.38
2023-03-29T11:18:05.970Z,3.50
2023-03-29T11:20:28.791Z,2.67
2023-03-29T11:22:48.078Z,2.67
2023-03-29T11:25:17.092Z,2.65
2023-03-29T11:27:37.338Z,2.20
2023-03-29T11:30:00.608Z,3.30
2023-03-29T11:32:18.081Z,3.00
2023-03-29T11:34:37.132Z,2.95
2023-03-29T11:36:55.283Z,2.22
2023-03-29T11:39:11.577Z,2.88
2023-03-29T11:41:22.173Z,3.40
2023-03-29T11:43:38.375Z,3.08
2023-03-29T11:45:51.519Z,3.30
2023-03-29T11:48:02.332Z,2.30
2023-03-29T11:50:21.882Z,2.17
2023-03-29T11:52:34.726Z,2.25
2023-03-29T11:54:46.781Z,2.53
2023-03-29T11:57:00.658Z,3.70
2023-03-29T11:59:19.047Z,2.35
2023-03-29T12:01:34.417Z,2.80
2023-03-29T12:03:49.290Z,1.63
2023-03-29T12:06:04.607Z,2.53
2023-03-29T12:08:18.332Z,2.58
2023-03-29T12:10:33.945Z,1.63
2023-03-29T12:12:47.855Z,1.77
2023-03-29T12:15:07.807Z,2.80
2023-03-29T12:17:21.156Z,3.28
2023-03-29T12:19:38.215Z,1.40
2023-03-29T12:21:49.465Z,1.63
2023-03-29T12:24:01.242Z,1.10
2023-03-29T12:26:19.794Z,1.95
2023-03-29T12:28:44.829Z,1.60
2023-03-29T12:31:08.059Z,2.00
2023-03-29T12:33:38.675Z,1.67
2023-03-29T12:36:18.230Z,1.58
2023-03-29T12:38:48.405Z,2.97
2023-03-29T12:41:20.502Z,1.60
2023-03-29T12:43:43.707Z,1.75
2023-03-29T12:46:09.710Z,1.30
2023-03-29T12:48:21.813Z,1.70
2023-03-29T12:50:36.274Z,1.45
2023-03-29T12:52:46.780Z,1.95
2023-03-29T12:55:05.491Z,3.03
2023-03-29T12:57:29.306Z,1.55
2023-03-29T12:59:40.831Z,1.40
2023-03-29T13:02:04.564Z,2.05
2023-03-29T13:04:18.833Z,1.75
2023-03-29T13:06:33.196Z,1.50
2023-03-29T13:08:44.175Z,1.90
2023-03-29T13:10:56.689Z,1.80
2023-03-29T13:13:15.814Z,2.00
2023-03-29T13:15:28.161Z,2.05
2023-03-29T13:17:48.645Z,1.58
2023-03-29T13:20:12.608Z,1.63
2023-03-29T13:22:36.949Z,2.03
2023-03-29T13:25:01.585Z,1.35
2023-03-29T13:27:15.253Z,1.58
2023-03-29T13:29:59.924Z,2.25
2023-03-29T13:32:27.368Z,2.05
2023-03-29T13:34:44.118Z,1.80
2023-03-29T13:37:02.677Z,2.60
2023-03-29T13:39:18.794Z,1.58
2023-03-29T13:41:37.219Z,2.60
2023-03-29T13:43:58.586Z,1.75
2023-03-29T13:46:26.178Z,2.50
2023-03-29T13:48:36.467Z,3.15
2023-03-29T13:50:56.739Z,16.65
2023-03-29T13:53:15.483Z,6.53
2023-03-29T13:55:30.859Z,2.10
2023-03-29T13:57:43.987Z,3.45
2023-03-29T13:59:58.544Z,4.38
2023-03-29T14:02:12.722Z,1.70
2023-03-29T14:04:26.874Z,1.85
2023-03-29T14:06:41.327Z,4.30
2023-03-29T14:08:50.773Z,1.92
2023-03-29T14:10:59.578Z,2.72
2023-03-29T14:13:07.850Z,2.00
2023-03-29T14:15:26.541Z,1.80
2023-03-29T14:17:35.806Z,2.70
2023-03-29T14:19:47.353Z,2.50
2023-03-29T14:21:58.586Z,3.17
2023-03-29T14:24:26.174Z,2.40
2023-03-29T14:26:38.879Z,2.17
2023-03-29T14:28:51.675Z,3.03
2023-03-29T14:31:00.051Z,2.40
2023-03-29T14:33:08.175Z,1.80
2023-03-29T14:35:16.138Z,2.50
2023-03-29T14:37:29.863Z,2.28
2023-03-29T14:39:38.166Z,2.40
2023-03-29T14:41:52.060Z,2.38
2023-03-29T14:44:00.759Z,3.97
2023-03-29T14:46:10.278Z,3.25
2023-03-29T14:48:19.373Z,2.65
2023-03-29T14:50:32.652Z,4.18
2023-03-29T14:52:44.998Z,2.03
2023-03-29T14:54:57.092Z,2.58
2023-03-29T14:57:08.582Z,2.22
2023-03-29T14:59:28.245Z,2.55
2023-03-29T15:01:46.599Z,1.92
2023-03-29T15:03:57.642Z,4.25
2023-03-29T15:06:07.527Z,1.85
2023-03-29T15:08:22.722Z,3.17
2023-03-29T15:10:31.372Z,2.15
2023-03-29T15:12:46.814Z,2.00
2023-03-29T15:14:55.788Z,1.85
2023-03-29T15:17:09.016Z,2.35
2023-03-29T15:19:20.255Z,1.60
2023-03-29T15:21:32.933Z,2.60
2023-03-29T15:23:52.669Z,2.63
2023-03-29T15:26:12.031Z,2.00
2023-03-29T15:28:32.618Z,2.20
2023-03-29T15:30:42.587Z,2.50
2023-03-29T15:32:50.809Z,2.47
2023-03-29T15:35:01.974Z,1.58
2023-03-29T15:37:10.155Z,2.13
2023-03-29T15:39:21.695Z,3.45
2023-03-29T15:41:30.715Z,2.63
2023-03-29T15:43:39.354Z,2.53
2023-03-29T15:45:47.916Z,2.63
2023-03-29T15:47:59.468Z,2.35
2023-03-29T15:50:08.069Z,2.60
2023-03-29T15:52:18.136Z,2.97
2023-03-29T15:54:31.153Z,5.70
2023-03-29T15:56:48.851Z,3.25
2023-03-29T15:58:57.547Z,3.03
2023-03-29T16:01:14.023Z,2.80
2023-03-29T16:03:24.818Z,3.33
2023-03-29T16:05:33.068Z,3.13
2023-03-29T16:07:41.145Z,3.33
2023-03-29T16:09:51.963Z,2.60
2023-03-29T16:12:00.631Z,2.28
2023-03-29T16:14:15.843Z,3.05
2023-03-29T16:16:24.160Z,3.05
2023-03-29T16:18:32.514Z,3.85
2023-03-29T16:20:41.808Z,3.10
2023-03-29T16:22:52.955Z,2.40
2023-03-29T16:25:05.379Z,2.65
2023-03-29T16:27:13.284Z,2.80
2023-03-29T16:29:21.666Z,3.40
2023-03-29T16:31:29.627Z,2.40
2023-03-29T16:33:38.098Z,2.38
2023-03-29T16:35:46.027Z,5.00
2023-03-29T16:37:54.533Z,4.10
2023-03-29T16:40:07.513Z,2.50
2023-03-29T16:42:15.812Z,4.07
2023-03-29T16:44:29.106Z,2.60
2023-03-29T16:46:37.783Z,2.30
2023-03-29T16:48:45.774Z,3.20
2023-03-29T16:50:53.852Z,2.53
2023-03-29T16:53:01.922Z,2.70
2023-03-29T16:55:15.454Z,7.20
2023-03-29T16:57:23.569Z,3.00
2023-03-29T16:59:33.178Z,3.47
2023-03-29T17:01:41.161Z,3.47
2023-03-29T17:03:49.381Z,3.90
2023-03-29T17:05:58.258Z,3.72
2023-03-29T17:08:06.785Z,2.88
2023-03-29T17:10:19.170Z,3.10
2023-03-29T17:12:28.477Z,2.80
2023-03-29T17:14:36.883Z,4.00
2023-03-29T17:16:45.160Z,3.13
2023-03-29T17:18:53.117Z,3.00
2023-03-29T17:21:04.104Z,3.13
2023-03-29T17:23:16.054Z,3.03
2023-03-29T17:25:27.007Z,3.55
2023-03-29T17:27:35.485Z,5.05
2023-03-29T17:29:43.715Z,3.45
2023-03-29T17:31:51.725Z,4.15
2023-03-29T17:34:00.038Z,3.38
2023-03-29T17:36:09.528Z,3.05
2023-03-29T17:38:17.773Z,2.83
2023-03-29T17:40:28.347Z,2.83
2023-03-29T17:42:36.589Z,3.13
2023-03-29T17:44:46.456Z,3.50
2023-03-29T17:46:54.428Z,2.80
2023-03-29T17:49:04.229Z,4.75
2023-03-29T17:51:12.200Z,2.50
2023-03-29T17:53:20.401Z,3.17
2023-03-29T17:55:31.056Z,4.05
2023-03-29T17:57:40.779Z,2.80
2023-03-29T17:59:52.137Z,3.35
2023-03-29T18:02:02.682Z,2.67
2023-03-29T18:04:11.046Z,2.78
2023-03-29T18:06:21.122Z,5.00
2023-03-29T18:08:36.741Z,2.80
2023-03-29T18:10:47.689Z,4.25
2023-03-29T18:12:57.279Z,4.78
2023-03-29T18:15:05.234Z,4.38
2023-03-29T18:17:13.535Z,3.47
2023-03-29T18:19:21.917Z,3.28
2023-03-29T18:21:30.371Z,3.28
2023-03-29T18:23:40.042Z,4.18
2023-03-29T18:25:50.712Z,3.55
2023-03-29T18:27:58.627Z,4.85
2023-03-29T18:30:08.893Z,3.60
2023-03-29T18:32:17.126Z,5.75
2023-03-29T18:34:26.555Z,3.53
2023-03-29T18:36:34.801Z,4.00
2023-03-29T18:38:43.929Z,3.83
2023-03-29T18:40:55.351Z,3.45
2023-03-29T18:43:03.389Z,4.63
2023-03-29T18:45:13.013Z,3.05
2023-03-29T18:47:21.480Z,8.48
2023-03-29T18:49:29.522Z,3.25
2023-03-29T18:51:38.874Z,3.75
2023-03-29T18:53:46.860Z,3.60
2023-03-29T18:55:58.826Z,2.92
2023-03-29T18:58:06.936Z,3.33
2023-03-29T19:00:16.005Z,3.15
2023-03-29T19:02:25.803Z,4.82
2023-03-29T19:04:33.905Z,4.60
2023-03-29T19:06:41.983Z,4.10
2023-03-29T19:08:49.958Z,5.45
2023-03-29T19:11:04.176Z,4.75
2023-03-29T19:13:12.208Z,5.13
2023-03-29T19:15:20.643Z,4.68
2023-03-29T19:17:28.817Z,5.68
2023-03-29T19:19:38.058Z,5.82
2023-03-29T19:21:47.222Z,3.85
2023-03-29T19:23:55.138Z,4.25
2023-03-29T19:26:09.352Z,5.90
2023-03-29T19:28:17.439Z,5.20
2023-03-29T19:30:26.114Z,5.00
2023-03-29T19:32:34.080Z,5.15
2023-03-29T19:34:42.525Z,4.78
2023-03-29T19:36:50.589Z,4.93
2023-03-29T19:38:59.631Z,5.78
2023-03-29T19:41:13.738Z,4.50
2023-03-29T19:43:22.318Z,4.18
2023-03-29T19:45:30.520Z,4.68
2023-03-29T19:47:38.841Z,4.50
2023-03-29T19:49:47.838Z,4.50
2023-03-29T19:51:57.712Z,5.10
2023-03-29T19:54:07.127Z,3.90
2023-03-29T19:56:18.193Z,4.93
2023-03-29T19:58:26.160Z,5.65
2023-03-29T20:00:35.149Z,5.25
2023-03-29T20:02:43.339Z,3.78
2023-03-29T20:04:53.090Z,4.25
2023-03-29T20:07:02.321Z,4.88
2023-03-29T20:09:11.443Z,7.30
2023-03-29T20:11:24.291Z,5.13
2023-03-29T20:13:38.667Z,5.57
2023-03-29T20:15:48.840Z,6.97
2023-03-29T20:17:59.871Z,5.55
2023-03-29T20:20:14.135Z,5.97
2023-03-29T20:22:26.130Z,6.68
2023-03-29T20:24:34.866Z,4.95
2023-03-29T20:26:45.835Z,7.32
2023-03-29T20:28:53.698Z,5.57
2023-03-29T20:31:07.327Z,5.25
2023-03-29T20:33:15.864Z,6.32
2023-03-29T20:35:24.041Z,6.88
2023-03-29T20:37:32.345Z,5.90
2023-03-29T20:39:41.188Z,5.10
2023-03-29T20:41:52.202Z,5.35
2023-03-29T20:44:03.201Z,9.25
2023-03-29T20:46:14.857Z,6.25
2023-03-29T20:48:25.020Z,5.95
2023-03-29T20:50:33.766Z,5.10
2023-03-29T20:52:41.799Z,5.63
2023-03-29T20:54:50.666Z,7.15
2023-03-29T20:57:01.434Z,6.45
2023-03-29T20:59:12.488Z,6.40
2023-03-29T21:01:22.056Z,7.53
2023-03-29T21:03:31.438Z,5.40
2023-03-29T21:05:39.627Z,8.07
2023-03-29T21:07:49.313Z,7.65
2023-03-29T21:09:57.161Z,5.03
2023-03-29T21:12:07.912Z,10.35
2023-03-29T21:14:19.963Z,5.93
2023-03-29T21:16:30.056Z,6.13
2023-03-29T21:18:39.331Z,6.43
2023-03-29T21:20:47.797Z,3.92
2023-03-29T21:22:55.666Z,5.28
2023-03-29T21:25:03.619Z,6.13
2023-03-29T21:27:14.233Z,6.72
2023-03-29T21:29:22.452Z,4.20
2023-03-29T21:31:30.655Z,8.10
2023-03-29T21:33:39.207Z,6.50
2023-03-29T21:35:47.194Z,7.85
2023-03-29T21:37:55.623Z,8.60
2023-03-29T21:40:06.008Z,5.72
2023-03-29T21:42:16.692Z,6.88
2023-03-29T21:44:24.741Z,6.97
2023-03-29T21:46:34.310Z,6.28
2023-03-29T21:48:42.657Z,5.43
2023-03-29T21:50:52.146Z,4.95
2023-03-29T21:53:00.120Z,7.97
2023-03-29T21:55:08.601Z,4.88
2023-03-29T21:57:19.591Z,4.32
2023-03-29T21:59:28.133Z,5.00
2023-03-29T22:01:36.321Z,7.82
2023-03-29T22:03:44.537Z,4.38
2023-03-29T22:06:00.689Z,8.18
2023-03-29T22:08:11.979Z,6.47
2023-03-29T22:10:23.352Z,8.13
2023-03-29T22:12:34.764Z,5.57
2023-03-29T22:14:42.637Z,8.32
2023-03-29T22:16:50.793Z,9.23
2023-03-29T22:18:58.804Z,8.38
2023-03-29T22:21:07.623Z,4.25
2023-03-29T22:23:15.945Z,5.35
2023-03-29T22:25:24.632Z,8.13
2023-03-29T22:27:35.767Z,9.32
2023-03-29T22:29:43.762Z,6.75
2023-03-29T22:31:52.042Z,3.80
2023-03-29T22:34:02.243Z,10.30
2023-03-29T22:36:17.740Z,6.72
2023-03-29T22:38:25.765Z,4.63
2023-03-29T22:40:34.099Z,5.82
2023-03-29T22:42:44.559Z,4.72
2023-03-29T22:44:52.453Z,6.00
2023-03-29T22:47:00.326Z,4.97
2023-03-29T22:49:08.267Z,4.10
2023-03-29T22:51:16.499Z,8.63
2023-03-29T22:53:24.533Z,5.43
2023-03-29T22:55:34.728Z,5.45
2023-03-29T22:57:45.234Z,4.50
2023-03-29T22:59:53.061Z,6.63
2023-03-29T23:02:00.922Z,8.23
2023-03-29T23:04:08.855Z,6.30
2023-03-29T23:06:18.203Z,6.38
2023-03-29T23:08:26.917Z,8.55
2023-03-29T23:10:34.810Z,5.20
2023-03-29T23:12:45.476Z,6.97
2023-03-29T23:14:53.834Z,6.40
2023-03-29T23:17:01.777Z,10.70
2023-03-29T23:19:09.816Z,6.45
2023-03-29T23:21:18.247Z,9.57
2023-03-29T23:23:27.382Z,5.32
2023-03-29T23:25:35.497Z,5.35
2023-03-29T23:27:46.157Z,5.35
2023-03-29T23:29:57.987Z,4.43
2023-03-29T23:32:07.135Z,6.65
2023-03-29T23:34:15.411Z,6.50
2023-03-29T23:36:27.318Z,6.15
2023-03-29T23:38:36.445Z,7.50
2023-03-29T23:40:44.590Z,4.28
2023-03-29T23:42:59.721Z,7.13
2023-03-29T23:45:11.495Z,10.20
2023-03-29T23:47:19.763Z,8.55
2023-03-29T23:49:27.851Z,6.57
2023-03-29T23:51:36.926Z,9.10
2023-03-29T23:53:45.170Z,8.57
2023-03-29T23:55:53.426Z,7.25
2023-03-29T23:58:05.929Z,7.60
